Main page
METAR-TAF:

METAR-TAF

Airports :

Wick Airport

Wick, Scotland

latitude: 58-27N, longitude: 003-05W, elevation: 39 m

Current weather observation

The report was made 24 minutes ago, at 13:20 UTC
Wind 13 kt from the South/Southeast
Temperature 12°C
Humidity 82%
Pressure 1024 hPa
Visibility: 8000 m

METAR: EGPC 241320Z 15013KT 8000 NSC 12/09 Q1024

Time: 14:44 (13:44 UTC)

Forecast

The report was made 13 minutes ago, at 13:31 UTC
Forecast valid from 24 at 13 UTC to 24 at 21 UTC
Wind 9 kt from the South/Southeast
Visibility 10 km or more
Few clouds at a height of 400 ft
Temporary
from 24 at 13 UTC to 24 at 21 UTC
Visibility: 8000 m

TAF: EGPC 241331Z 2413/2421 15009KT 9999 FEW004 TEMPO 2413/2421 8000

Weather observations and forecasts of more than 4000 airports (METAR and TAF reports).

The available stations are represented by yellow and red dots on the map.

Hover mouse over dot to see the name of the station.

Then click to see weather observations and forecasts.

To change the map : click on the green buttons with a black cross to zoom in, on the green button with a dash to zoom out, or on the green arrows for adjacent maps.


METAR-TAF: